首页
METAR-TAF:

METAR-TAF

机场 :

霍尼亚拉, 瓜达尔卡纳尔岛, 所罗门群岛

霍尼亞拉國際機場

纬度: 09-25S, 经度: 160-03E, 海拔: 8米

当前天气观测

该预报发布于17分钟前的13:00 UTC
风速2节,风向南转西南
温度 25°C
湿度 100%
气压 1009 hPa
能见度10公里或以上
散云层高于1600英尺
少量云层高于1700英尺, 积雨云.
多云层高于3000英尺
(小) 阵雨

METAR: AGGH 171300Z 20002KT 9999 -SH SCT016 FEW017CB BKN030 25/25 Q1009

时间: 00:17 (13:17 UTC)

预报

该预报发布于2小时和12分钟前的11:05 UTC
预报有效从17日的 12点(UTC)到 18日的 12点(UTC)
风速7节,风向东转东北
能见度10公里或以上
少量云层高于1600英尺
散云层高于2700英尺
(小) 阵雨, 毛毛雨
几率 40%
在之间 IN和TE点(UTC)
能見度: 1009
散云层高于1500英尺
少量云层高于1500英尺, 积雨云.

TAF: AGGH 171105Z 1712/1812 07007KT 9999 -SHDZ FEW016 SCT027 PROB40 INTER 1712/1718 5000 TSSH SCT015 FEW015CB T 25 25 24 27 Q 1010 1008 1007 1009

超过4000个机场的气象观测和天气预报(METAR&TAF报告)。

可查询的气象台以黄色和红色小点在地图上表示。

将鼠标移到小点上方,可查看气象台名称。

然后点击查看天气观测和预报。

如需切换地图:点击带黑十字的绿色按钮放大地图;点击带横线的绿色按钮缩小地图;或者点击绿色箭头查看邻近地区的地图。


METAR-TAF: